sensor_id;sensor_type;location;lat;lon;timestamp;P1;durP1;ratioP1;P2;durP2;ratioP2
1062;SDS011;520;50.932;6.962;2022-07-10T00:00:01;3.60;;;1.70;;
1062;SDS011;520;50.932;6.962;2022-07-10T00:02:29;4.43;;;1.30;;
1062;SDS011;520;50.932;6.962;2022-07-10T00:04:56;1.37;;;1.27;;
1062;SDS011;520;50.932;6.962;2022-07-10T00:07:23;6.27;;;1.83;;
1062;SDS011;520;50.932;6.962;2022-07-10T00:09:49;3.67;;;1.60;;
1062;SDS011;520;50.932;6.962;2022-07-10T00:12:16;3.17;;;1.37;;
1062;SDS011;520;50.932;6.962;2022-07-10T00:14:42;2.40;;;1.77;;
1062;SDS011;520;50.932;6.962;2022-07-10T00:17:09;2.33;;;1.63;;
1062;SDS011;520;50.932;6.962;2022-07-10T00:19:36;3.07;;;1.83;;
1062;SDS011;520;50.932;6.962;2022-07-10T00:22:03;4.03;;;1.90;;
1062;SDS011;520;50.932;6.962;2022-07-10T00:24:29;2.40;;;1.40;;
1062;SDS011;520;50.932;6.962;2022-07-10T00:26:56;5.03;;;1.90;;
1062;SDS011;520;50.932;6.962;2022-07-10T00:29:24;7.13;;;2.00;;
1062;SDS011;520;50.932;6.962;2022-07-10T00:31:51;3.00;;;1.80;;
1062;SDS011;520;50.932;6.962;2022-07-10T00:34:18;3.70;;;1.80;;
1062;SDS011;520;50.932;6.962;2022-07-10T00:36:44;2.80;;;2.27;;
1062;SDS011;520;50.932;6.962;2022-07-10T00:39:11;4.43;;;1.87;;
1062;SDS011;520;50.932;6.962;2022-07-10T00:41:37;3.57;;;1.87;;
1062;SDS011;520;50.932;6.962;2022-07-10T00:44:04;2.90;;;1.80;;
1062;SDS011;520;50.932;6.962;2022-07-10T00:46:31;3.17;;;1.60;;
1062;SDS011;520;50.932;6.962;2022-07-10T00:48:58;3.33;;;1.50;;
1062;SDS011;520;50.932;6.962;2022-07-10T00:51:26;2.93;;;1.63;;
1062;SDS011;520;50.932;6.962;2022-07-10T00:53:57;3.47;;;2.00;;
1062;SDS011;520;50.932;6.962;2022-07-10T00:56:25;5.63;;;1.80;;
1062;SDS011;520;50.932;6.962;2022-07-10T00:58:53;3.93;;;1.50;;
1062;SDS011;520;50.932;6.962;2022-07-10T01:01:20;4.10;;;1.80;;
1062;SDS011;520;50.932;6.962;2022-07-10T01:03:50;6.80;;;2.10;;
1062;SDS011;520;50.932;6.962;2022-07-10T01:06:18;2.50;;;1.57;;
1062;SDS011;520;50.932;6.962;2022-07-10T01:08:44;4.67;;;1.90;;
1062;SDS011;520;50.932;6.962;2022-07-10T01:11:12;4.03;;;2.13;;
1062;SDS011;520;50.932;6.962;2022-07-10T01:13:41;7.30;;;1.90;;
1062;SDS011;520;50.932;6.962;2022-07-10T01:16:10;2.73;;;1.37;;
1062;SDS011;520;50.932;6.962;2022-07-10T01:18:37;3.60;;;1.53;;
1062;SDS011;520;50.932;6.962;2022-07-10T01:21:04;4.77;;;1.80;;
1062;SDS011;520;50.932;6.962;2022-07-10T01:23:31;2.70;;;1.70;;
1062;SDS011;520;50.932;6.962;2022-07-10T01:25:58;3.87;;;1.50;;
1062;SDS011;520;50.932;6.962;2022-07-10T01:28:24;3.00;;;1.83;;
1062;SDS011;520;50.932;6.962;2022-07-10T01:30:54;4.73;;;1.80;;
1062;SDS011;520;50.932;6.962;2022-07-10T01:33:22;4.40;;;2.00;;
1062;SDS011;520;50.932;6.962;2022-07-10T01:35:48;2.43;;;1.40;;
1062;SDS011;520;50.932;6.962;2022-07-10T01:38:15;2.53;;;1.40;;
1062;SDS011;520;50.932;6.962;2022-07-10T01:40:41;3.53;;;1.80;;
1062;SDS011;520;50.932;6.962;2022-07-10T01:43:08;2.17;;;1.80;;
1062;SDS011;520;50.932;6.962;2022-07-10T01:45:35;3.57;;;1.77;;
1062;SDS011;520;50.932;6.962;2022-07-10T01:48:01;4.03;;;2.07;;
1062;SDS011;520;50.932;6.962;2022-07-10T01:50:28;2.00;;;1.80;;
1062;SDS011;520;50.932;6.962;2022-07-10T01:52:55;5.80;;;1.90;;
1062;SDS011;520;50.932;6.962;2022-07-10T01:55:21;2.27;;;1.77;;
1062;SDS011;520;50.932;6.962;2022-07-10T01:57:48;4.03;;;1.63;;
1062;SDS011;520;50.932;6.962;2022-07-10T02:00:14;2.77;;;1.60;;
1062;SDS011;520;50.932;6.962;2022-07-10T02:02:41;3.20;;;1.60;;
1062;SDS011;520;50.932;6.962;2022-07-10T02:05:28;3.83;;;1.40;;
1062;SDS011;520;50.932;6.962;2022-07-10T02:07:55;3.03;;;1.83;;
1062;SDS011;520;50.932;6.962;2022-07-10T02:10:22;4.50;;;1.77;;
1062;SDS011;520;50.932;6.962;2022-07-10T02:12:49;3.67;;;1.50;;
1062;SDS011;520;50.932;6.962;2022-07-10T02:15:16;2.03;;;1.63;;
1062;SDS011;520;50.932;6.962;2022-07-10T02:17:42;15.77;;;2.67;;
1062;SDS011;520;50.932;6.962;2022-07-10T02:20:09;1.70;;;1.50;;
1062;SDS011;520;50.932;6.962;2022-07-10T02:22:37;3.23;;;1.57;;
1062;SDS011;520;50.932;6.962;2022-07-10T02:25:03;4.20;;;1.03;;
1062;SDS011;520;50.932;6.962;2022-07-10T02:27:31;2.43;;;1.30;;
1062;SDS011;520;50.932;6.962;2022-07-10T02:29:57;2.23;;;1.47;;
1062;SDS011;520;50.932;6.962;2022-07-10T02:32:24;2.80;;;1.97;;
1062;SDS011;520;50.932;6.962;2022-07-10T02:34:51;1.93;;;1.53;;
1062;SDS011;520;50.932;6.962;2022-07-10T02:37:18;3.70;;;1.67;;
1062;SDS011;520;50.932;6.962;2022-07-10T02:39:45;5.27;;;1.70;;
1062;SDS011;520;50.932;6.962;2022-07-10T02:42:12;8.47;;;1.63;;
1062;SDS011;520;50.932;6.962;2022-07-10T02:44:39;2.97;;;1.27;;
1062;SDS011;520;50.932;6.962;2022-07-10T02:47:06;3.40;;;1.57;;
1062;SDS011;520;50.932;6.962;2022-07-10T02:49:32;4.20;;;2.10;;
1062;SDS011;520;50.932;6.962;2022-07-10T02:51:59;5.53;;;1.40;;
1062;SDS011;520;50.932;6.962;2022-07-10T02:54:26;1.97;;;1.50;;
1062;SDS011;520;50.932;6.962;2022-07-10T02:56:53;2.33;;;1.13;;
1062;SDS011;520;50.932;6.962;2022-07-10T02:59:20;7.10;;;1.43;;
1062;SDS011;520;50.932;6.962;2022-07-10T03:01:46;3.60;;;1.67;;
1062;SDS011;520;50.932;6.962;2022-07-10T03:04:13;4.07;;;1.47;;
1062;SDS011;520;50.932;6.962;2022-07-10T03:06:40;4.03;;;2.00;;
1062;SDS011;520;50.932;6.962;2022-07-10T03:09:07;2.50;;;1.50;;
1062;SDS011;520;50.932;6.962;2022-07-10T03:11:33;2.20;;;1.30;;
1062;SDS011;520;50.932;6.962;2022-07-10T03:14:00;5.50;;;1.50;;
1062;SDS011;520;50.932;6.962;2022-07-10T03:16:26;2.83;;;1.60;;
1062;SDS011;520;50.932;6.962;2022-07-10T03:18:53;2.83;;;1.47;;
1062;SDS011;520;50.932;6.962;2022-07-10T03:21:21;4.93;;;1.70;;
1062;SDS011;520;50.932;6.962;2022-07-10T03:23:47;1.63;;;1.50;;
1062;SDS011;520;50.932;6.962;2022-07-10T03:26:14;3.23;;;1.23;;
1062;SDS011;520;50.932;6.962;2022-07-10T03:28:41;4.60;;;1.40;;
1062;SDS011;520;50.932;6.962;2022-07-10T03:31:08;1.80;;;1.50;;
1062;SDS011;520;50.932;6.962;2022-07-10T03:33:34;5.67;;;1.93;;
1062;SDS011;520;50.932;6.962;2022-07-10T03:36:01;2.73;;;1.53;;
1062;SDS011;520;50.932;6.962;2022-07-10T03:38:28;3.63;;;1.60;;
1062;SDS011;520;50.932;6.962;2022-07-10T03:40:54;4.37;;;1.50;;
1062;SDS011;520;50.932;6.962;2022-07-10T03:43:21;2.40;;;1.50;;
1062;SDS011;520;50.932;6.962;2022-07-10T03:45:48;3.70;;;1.70;;
1062;SDS011;520;50.932;6.962;2022-07-10T03:48:14;5.67;;;2.30;;
1062;SDS011;520;50.932;6.962;2022-07-10T03:50:41;2.20;;;1.23;;
1062;SDS011;520;50.932;6.962;2022-07-10T03:53:08;1.80;;;1.10;;
1062;SDS011;520;50.932;6.962;2022-07-10T03:55:35;5.40;;;1.33;;
1062;SDS011;520;50.932;6.962;2022-07-10T03:58:01;4.33;;;2.30;;
1062;SDS011;520;50.932;6.962;2022-07-10T04:00:29;2.13;;;1.30;;
1062;SDS011;520;50.932;6.962;2022-07-10T04:03:03;2.73;;;1.40;;
1062;SDS011;520;50.932;6.962;2022-07-10T04:05:31;4.27;;;1.30;;
1062;SDS011;520;50.932;6.962;2022-07-10T04:07:59;2.13;;;1.20;;
1062;SDS011;520;50.932;6.962;2022-07-10T04:10:27;3.90;;;1.50;;
1062;SDS011;520;50.932;6.962;2022-07-10T04:12:55;1.63;;;1.10;;
1062;SDS011;520;50.932;6.962;2022-07-10T04:15:23;2.10;;;1.50;;
1062;SDS011;520;50.932;6.962;2022-07-10T04:17:50;2.83;;;1.50;;
1062;SDS011;520;50.932;6.962;2022-07-10T04:20:17;2.57;;;1.70;;
1062;SDS011;520;50.932;6.962;2022-07-10T04:22:45;3.03;;;1.33;;
1062;SDS011;520;50.932;6.962;2022-07-10T04:25:12;5.90;;;1.43;;
1062;SDS011;520;50.932;6.962;2022-07-10T04:27:38;3.00;;;1.47;;
1062;SDS011;520;50.932;6.962;2022-07-10T04:30:06;4.50;;;1.60;;
1062;SDS011;520;50.932;6.962;2022-07-10T04:32:33;2.67;;;1.43;;
1062;SDS011;520;50.932;6.962;2022-07-10T04:35:00;2.07;;;1.87;;
1062;SDS011;520;50.932;6.962;2022-07-10T04:37:29;2.83;;;1.43;;
1062;SDS011;520;50.932;6.962;2022-07-10T04:39:56;2.40;;;1.43;;
1062;SDS011;520;50.932;6.962;2022-07-10T04:42:24;2.60;;;1.57;;
1062;SDS011;520;50.932;6.962;2022-07-10T04:44:52;4.60;;;1.90;;
1062;SDS011;520;50.932;6.962;2022-07-10T04:47:18;3.03;;;1.40;;
1062;SDS011;520;50.932;6.962;2022-07-10T04:49:45;3.93;;;1.60;;
1062;SDS011;520;50.932;6.962;2022-07-10T04:52:12;6.20;;;1.80;;
1062;SDS011;520;50.932;6.962;2022-07-10T04:54:39;6.60;;;1.80;;
1062;SDS011;520;50.932;6.962;2022-07-10T04:57:05;2.27;;;1.60;;
1062;SDS011;520;50.932;6.962;2022-07-10T04:59:33;3.30;;;1.30;;
1062;SDS011;520;50.932;6.962;2022-07-10T05:01:59;11.00;;;2.63;;
1062;SDS011;520;50.932;6.962;2022-07-10T05:04:26;4.67;;;1.87;;
1062;SDS011;520;50.932;6.962;2022-07-10T05:06:53;4.50;;;2.13;;
1062;SDS011;520;50.932;6.962;2022-07-10T05:09:19;3.40;;;1.47;;
1062;SDS011;520;50.932;6.962;2022-07-10T05:11:46;4.63;;;1.70;;
1062;SDS011;520;50.932;6.962;2022-07-10T05:14:13;3.23;;;1.70;;
1062;SDS011;520;50.932;6.962;2022-07-10T05:16:39;5.70;;;2.60;;
1062;SDS011;520;50.932;6.962;2022-07-10T05:19:06;1.90;;;1.50;;
1062;SDS011;520;50.932;6.962;2022-07-10T05:21:33;5.93;;;1.90;;
1062;SDS011;520;50.932;6.962;2022-07-10T05:24:00;4.20;;;1.90;;
1062;SDS011;520;50.932;6.962;2022-07-10T05:26:27;2.70;;;1.67;;
1062;SDS011;520;50.932;6.962;2022-07-10T05:28:53;3.37;;;1.70;;
1062;SDS011;520;50.932;6.962;2022-07-10T05:31:20;3.10;;;1.87;;
1062;SDS011;520;50.932;6.962;2022-07-10T05:33:47;3.90;;;1.80;;
1062;SDS011;520;50.932;6.962;2022-07-10T05:36:14;6.67;;;1.93;;
1062;SDS011;520;50.932;6.962;2022-07-10T05:38:40;3.67;;;1.80;;
1062;SDS011;520;50.932;6.962;2022-07-10T05:41:08;2.40;;;1.63;;
1062;SDS011;520;50.932;6.962;2022-07-10T05:43:34;3.27;;;2.07;;
1062;SDS011;520;50.932;6.962;2022-07-10T05:46:01;2.33;;;1.83;;
1062;SDS011;520;50.932;6.962;2022-07-10T05:48:28;3.67;;;2.00;;
1062;SDS011;520;50.932;6.962;2022-07-10T05:50:57;4.80;;;2.83;;
1062;SDS011;520;50.932;6.962;2022-07-10T05:53:44;8.43;;;1.83;;
1062;SDS011;520;50.932;6.962;2022-07-10T05:56:11;5.50;;;1.87;;
1062;SDS011;520;50.932;6.962;2022-07-10T05:58:37;2.20;;;1.33;;
1062;SDS011;520;50.932;6.962;2022-07-10T06:01:04;4.77;;;2.00;;
1062;SDS011;520;50.932;6.962;2022-07-10T06:03:31;3.13;;;1.83;;
1062;SDS011;520;50.932;6.962;2022-07-10T06:05:58;6.23;;;1.90;;
1062;SDS011;520;50.932;6.962;2022-07-10T06:08:25;2.83;;;1.60;;
1062;SDS011;520;50.932;6.962;2022-07-10T06:10:52;5.73;;;1.80;;
1062;SDS011;520;50.932;6.962;2022-07-10T06:13:19;4.37;;;1.70;;
1062;SDS011;520;50.932;6.962;2022-07-10T06:15:45;5.17;;;1.80;;
1062;SDS011;520;50.932;6.962;2022-07-10T06:18:13;5.00;;;1.30;;
1062;SDS011;520;50.932;6.962;2022-07-10T06:20:40;3.63;;;1.47;;
1062;SDS011;520;50.932;6.962;2022-07-10T06:23:06;4.53;;;1.70;;
1062;SDS011;520;50.932;6.962;2022-07-10T06:25:33;3.83;;;1.80;;
1062;SDS011;520;50.932;6.962;2022-07-10T06:28:00;4.27;;;1.80;;
1062;SDS011;520;50.932;6.962;2022-07-10T06:30:26;3.00;;;1.67;;
1062;SDS011;520;50.932;6.962;2022-07-10T06:32:54;6.53;;;2.40;;
1062;SDS011;520;50.932;6.962;2022-07-10T06:35:20;5.53;;;1.73;;
1062;SDS011;520;50.932;6.962;2022-07-10T06:37:47;4.93;;;2.27;;
1062;SDS011;520;50.932;6.962;2022-07-10T06:40:14;7.73;;;2.70;;
1062;SDS011;520;50.932;6.962;2022-07-10T06:42:42;6.37;;;2.70;;
1062;SDS011;520;50.932;6.962;2022-07-10T06:45:10;5.27;;;2.17;;
1062;SDS011;520;50.932;6.962;2022-07-10T06:47:36;3.23;;;2.33;;
1062;SDS011;520;50.932;6.962;2022-07-10T06:50:23;4.00;;;2.47;;
1062;SDS011;520;50.932;6.962;2022-07-10T06:52:52;6.10;;;2.20;;
1062;SDS011;520;50.932;6.962;2022-07-10T06:55:19;2.60;;;1.83;;
1062;SDS011;520;50.932;6.962;2022-07-10T06:57:46;5.80;;;2.47;;
1062;SDS011;520;50.932;6.962;2022-07-10T07:00:13;2.83;;;2.00;;
1062;SDS011;520;50.932;6.962;2022-07-10T07:02:42;5.30;;;2.17;;
1062;SDS011;520;50.932;6.962;2022-07-10T07:05:08;5.40;;;2.00;;
1062;SDS011;520;50.932;6.962;2022-07-10T07:07:36;2.50;;;1.60;;
1062;SDS011;520;50.932;6.962;2022-07-10T07:10:03;5.20;;;1.97;;
1062;SDS011;520;50.932;6.962;2022-07-10T07:12:31;3.07;;;1.43;;
1062;SDS011;520;50.932;6.962;2022-07-10T07:14:58;6.10;;;2.57;;
1062;SDS011;520;50.932;6.962;2022-07-10T07:17:25;5.30;;;2.37;;
1062;SDS011;520;50.932;6.962;2022-07-10T07:20:02;4.17;;;2.90;;
1062;SDS011;520;50.932;6.962;2022-07-10T07:22:48;5.47;;;2.43;;
1062;SDS011;520;50.932;6.962;2022-07-10T07:25:34;5.53;;;3.07;;
1062;SDS011;520;50.932;6.962;2022-07-10T07:28:00;4.00;;;2.30;;
1062;SDS011;520;50.932;6.962;2022-07-10T07:30:27;3.47;;;1.87;;
1062;SDS011;520;50.932;6.962;2022-07-10T07:32:54;5.17;;;1.80;;
1062;SDS011;520;50.932;6.962;2022-07-10T07:35:21;5.20;;;3.00;;
1062;SDS011;520;50.932;6.962;2022-07-10T07:37:49;2.77;;;2.10;;
1062;SDS011;520;50.932;6.962;2022-07-10T07:40:21;2.40;;;1.70;;
1062;SDS011;520;50.932;6.962;2022-07-10T07:42:49;3.37;;;2.30;;
1062;SDS011;520;50.932;6.962;2022-07-10T07:45:17;2.90;;;2.37;;
1062;SDS011;520;50.932;6.962;2022-07-10T07:47:47;3.47;;;2.30;;
1062;SDS011;520;50.932;6.962;2022-07-10T07:50:16;4.10;;;2.93;;
1062;SDS011;520;50.932;6.962;2022-07-10T07:52:47;2.50;;;2.30;;
1062;SDS011;520;50.932;6.962;2022-07-10T07:55:15;3.43;;;2.83;;
1062;SDS011;520;50.932;6.962;2022-07-10T07:57:43;2.80;;;1.97;;
1062;SDS011;520;50.932;6.962;2022-07-10T08:00:11;4.37;;;2.30;;
1062;SDS011;520;50.932;6.962;2022-07-10T08:02:40;5.83;;;2.80;;
1062;SDS011;520;50.932;6.962;2022-07-10T08:05:07;4.77;;;2.93;;
1062;SDS011;520;50.932;6.962;2022-07-10T08:07:35;3.30;;;2.70;;
1062;SDS011;520;50.932;6.962;2022-07-10T08:10:04;6.30;;;2.47;;
1062;SDS011;520;50.932;6.962;2022-07-10T08:12:32;2.50;;;1.87;;
1062;SDS011;520;50.932;6.962;2022-07-10T08:14:59;3.23;;;2.07;;
1062;SDS011;520;50.932;6.962;2022-07-10T08:17:26;2.90;;;2.20;;
1062;SDS011;520;50.932;6.962;2022-07-10T08:19:53;2.23;;;1.93;;
1062;SDS011;520;50.932;6.962;2022-07-10T08:22:20;6.10;;;2.00;;
1062;SDS011;520;50.932;6.962;2022-07-10T08:24:47;5.37;;;2.03;;
1062;SDS011;520;50.932;6.962;2022-07-10T08:27:13;6.93;;;2.60;;
1062;SDS011;520;50.932;6.962;2022-07-10T08:29:41;3.33;;;2.10;;
1062;SDS011;520;50.932;6.962;2022-07-10T08:32:07;4.33;;;2.40;;
1062;SDS011;520;50.932;6.962;2022-07-10T08:34:36;4.77;;;2.57;;
1062;SDS011;520;50.932;6.962;2022-07-10T08:37:03;4.43;;;2.63;;
1062;SDS011;520;50.932;6.962;2022-07-10T08:39:30;4.50;;;2.37;;
1062;SDS011;520;50.932;6.962;2022-07-10T08:41:57;2.73;;;2.33;;
1062;SDS011;520;50.932;6.962;2022-07-10T08:44:25;2.33;;;2.23;;
1062;SDS011;520;50.932;6.962;2022-07-10T08:46:52;4.20;;;2.10;;
1062;SDS011;520;50.932;6.962;2022-07-10T08:49:19;3.43;;;2.37;;
1062;SDS011;520;50.932;6.962;2022-07-10T08:54:22;6.13;;;3.10;;
1062;SDS011;520;50.932;6.962;2022-07-10T08:56:51;3.73;;;2.30;;
1062;SDS011;520;50.932;6.962;2022-07-10T08:59:18;3.83;;;2.63;;
1062;SDS011;520;50.932;6.962;2022-07-10T09:01:47;3.47;;;3.17;;
1062;SDS011;520;50.932;6.962;2022-07-10T09:04:18;3.43;;;2.83;;
1062;SDS011;520;50.932;6.962;2022-07-10T09:06:46;6.00;;;3.50;;
1062;SDS011;520;50.932;6.962;2022-07-10T09:09:13;3.07;;;2.80;;
1062;SDS011;520;50.932;6.962;2022-07-10T09:11:40;4.20;;;3.80;;
1062;SDS011;520;50.932;6.962;2022-07-10T09:14:13;6.70;;;3.40;;
1062;SDS011;520;50.932;6.962;2022-07-10T09:16:58;3.97;;;3.47;;
1062;SDS011;520;50.932;6.962;2022-07-10T09:19:25;5.17;;;3.60;;
1062;SDS011;520;50.932;6.962;2022-07-10T09:24:39;5.13;;;2.87;;
1062;SDS011;520;50.932;6.962;2022-07-10T09:27:07;4.53;;;3.00;;
1062;SDS011;520;50.932;6.962;2022-07-10T09:29:47;4.40;;;3.43;;
1062;SDS011;520;50.932;6.962;2022-07-10T09:32:15;3.80;;;2.83;;
1062;SDS011;520;50.932;6.962;2022-07-10T09:34:47;3.83;;;2.87;;
1062;SDS011;520;50.932;6.962;2022-07-10T09:42:33;3.30;;;2.50;;
1062;SDS011;520;50.932;6.962;2022-07-10T09:47:39;3.30;;;2.37;;
1062;SDS011;520;50.932;6.962;2022-07-10T09:53:02;3.60;;;2.10;;
1062;SDS011;520;50.932;6.962;2022-07-10T09:55:31;8.80;;;2.97;;
1062;SDS011;520;50.932;6.962;2022-07-10T10:00:31;3.10;;;1.80;;
1062;SDS011;520;50.932;6.962;2022-07-10T10:02:58;3.90;;;1.40;;
1062;SDS011;520;50.932;6.962;2022-07-10T10:05:32;1.57;;;1.40;;
1062;SDS011;520;50.932;6.962;2022-07-10T10:08:19;2.47;;;1.73;;
1062;SDS011;520;50.932;6.962;2022-07-10T10:10:50;3.93;;;1.87;;
1062;SDS011;520;50.932;6.962;2022-07-10T10:15:52;2.27;;;2.07;;
1062;SDS011;520;50.932;6.962;2022-07-10T10:18:20;3.87;;;2.50;;
1062;SDS011;520;50.932;6.962;2022-07-10T10:20:49;3.57;;;2.97;;
1062;SDS011;520;50.932;6.962;2022-07-10T10:23:18;2.80;;;2.50;;
1062;SDS011;520;50.932;6.962;2022-07-10T10:25:52;3.30;;;2.70;;
1062;SDS011;520;50.932;6.962;2022-07-10T10:28:24;2.27;;;2.03;;
1062;SDS011;520;50.932;6.962;2022-07-10T10:30:52;2.00;;;1.87;;
1062;SDS011;520;50.932;6.962;2022-07-10T10:36:00;5.30;;;1.97;;
1062;SDS011;520;50.932;6.962;2022-07-10T10:41:29;3.23;;;1.53;;
1062;SDS011;520;50.932;6.962;2022-07-10T10:49:17;6.30;;;1.50;;
1062;SDS011;520;50.932;6.962;2022-07-10T10:54:25;1.83;;;1.63;;
1062;SDS011;520;50.932;6.962;2022-07-10T10:57:12;3.60;;;2.30;;
1062;SDS011;520;50.932;6.962;2022-07-10T11:02:27;2.63;;;1.57;;
1062;SDS011;520;50.932;6.962;2022-07-10T11:07:56;6.20;;;2.43;;
1062;SDS011;520;50.932;6.962;2022-07-10T11:15:35;3.70;;;1.80;;
1062;SDS011;520;50.932;6.962;2022-07-10T11:18:14;2.60;;;1.57;;
1062;SDS011;520;50.932;6.962;2022-07-10T11:20:48;3.47;;;2.03;;
1062;SDS011;520;50.932;6.962;2022-07-10T11:28:59;2.37;;;1.77;;
1062;SDS011;520;50.932;6.962;2022-07-10T11:31:28;1.50;;;1.40;;
1062;SDS011;520;50.932;6.962;2022-07-10T11:33:57;4.00;;;2.93;;
1062;SDS011;520;50.932;6.962;2022-07-10T11:36:24;2.03;;;1.57;;
1062;SDS011;520;50.932;6.962;2022-07-10T11:38:58;1.67;;;1.40;;
1062;SDS011;520;50.932;6.962;2022-07-10T11:41:27;3.23;;;1.20;;
1062;SDS011;520;50.932;6.962;2022-07-10T11:43:55;1.63;;;1.20;;
1062;SDS011;520;50.932;6.962;2022-07-10T11:46:25;1.27;;;1.13;;
1062;SDS011;520;50.932;6.962;2022-07-10T11:48:54;2.40;;;1.30;;
1062;SDS011;520;50.932;6.962;2022-07-10T11:51:37;2.97;;;1.37;;
1062;SDS011;520;50.932;6.962;2022-07-10T11:54:07;3.13;;;1.30;;
1062;SDS011;520;50.932;6.962;2022-07-10T11:56:39;1.37;;;1.27;;
1062;SDS011;520;50.932;6.962;2022-07-10T11:59:08;1.80;;;1.47;;
1062;SDS011;520;50.932;6.962;2022-07-10T12:01:43;2.00;;;1.50;;
1062;SDS011;520;50.932;6.962;2022-07-10T12:04:12;2.60;;;1.33;;
1062;SDS011;520;50.932;6.962;2022-07-10T12:06:41;2.93;;;1.70;;
1062;SDS011;520;50.932;6.962;2022-07-10T12:09:14;2.83;;;1.77;;
1062;SDS011;520;50.932;6.962;2022-07-10T12:11:43;1.50;;;1.40;;
1062;SDS011;520;50.932;6.962;2022-07-10T12:14:19;2.90;;;1.90;;
1062;SDS011;520;50.932;6.962;2022-07-10T12:16:49;3.20;;;1.80;;
1062;SDS011;520;50.932;6.962;2022-07-10T12:19:18;1.60;;;1.50;;
1062;SDS011;520;50.932;6.962;2022-07-10T12:22:05;1.40;;;1.30;;
1062;SDS011;520;50.932;6.962;2022-07-10T12:24:34;2.40;;;2.13;;
1062;SDS011;520;50.932;6.962;2022-07-10T12:27:01;5.53;;;3.20;;
1062;SDS011;520;50.932;6.962;2022-07-10T12:29:29;1.40;;;1.30;;
1062;SDS011;520;50.932;6.962;2022-07-10T12:31:56;5.30;;;1.83;;
1062;SDS011;520;50.932;6.962;2022-07-10T12:34:33;2.80;;;1.80;;
1062;SDS011;520;50.932;6.962;2022-07-10T12:37:06;1.67;;;1.40;;
1062;SDS011;520;50.932;6.962;2022-07-10T12:39:47;1.90;;;1.53;;
1062;SDS011;520;50.932;6.962;2022-07-10T12:42:27;2.90;;;1.70;;
1062;SDS011;520;50.932;6.962;2022-07-10T12:45:09;1.67;;;1.57;;
1062;SDS011;520;50.932;6.962;2022-07-10T12:47:46;1.57;;;1.13;;
1062;SDS011;520;50.932;6.962;2022-07-10T12:50:15;2.00;;;1.20;;
1062;SDS011;520;50.932;6.962;2022-07-10T12:52:43;1.73;;;1.50;;
1062;SDS011;520;50.932;6.962;2022-07-10T13:00:27;3.13;;;1.50;;
1062;SDS011;520;50.932;6.962;2022-07-10T13:03:01;1.93;;;1.63;;
1062;SDS011;520;50.932;6.962;2022-07-10T13:08:10;3.20;;;1.60;;
1062;SDS011;520;50.932;6.962;2022-07-10T13:10:58;4.53;;;1.77;;
1062;SDS011;520;50.932;6.962;2022-07-10T13:13:25;2.03;;;1.80;;
1062;SDS011;520;50.932;6.962;2022-07-10T13:15:52;2.17;;;1.63;;
1062;SDS011;520;50.932;6.962;2022-07-10T13:18:20;2.07;;;1.87;;
1062;SDS011;520;50.932;6.962;2022-07-10T13:20:49;2.03;;;1.70;;
1062;SDS011;520;50.932;6.962;2022-07-10T13:23:25;2.47;;;1.70;;
1062;SDS011;520;50.932;6.962;2022-07-10T13:25:54;4.83;;;2.57;;
1062;SDS011;520;50.932;6.962;2022-07-10T13:28:29;4.07;;;1.97;;
1062;SDS011;520;50.932;6.962;2022-07-10T13:30:56;4.97;;;2.07;;
1062;SDS011;520;50.932;6.962;2022-07-10T13:33:24;2.67;;;2.47;;
1062;SDS011;520;50.932;6.962;2022-07-10T13:35:51;4.83;;;2.30;;
1062;SDS011;520;50.932;6.962;2022-07-10T13:38:18;2.50;;;2.30;;
1062;SDS011;520;50.932;6.962;2022-07-10T13:40:46;3.27;;;2.30;;
1062;SDS011;520;50.932;6.962;2022-07-10T13:43:14;3.60;;;1.90;;
1062;SDS011;520;50.932;6.962;2022-07-10T13:45:44;2.50;;;2.27;;
1062;SDS011;520;50.932;6.962;2022-07-10T13:48:14;2.03;;;1.93;;
1062;SDS011;520;50.932;6.962;2022-07-10T13:50:42;4.87;;;1.97;;
1062;SDS011;520;50.932;6.962;2022-07-10T13:53:10;2.50;;;2.07;;
1062;SDS011;520;50.932;6.962;2022-07-10T13:55:37;2.90;;;2.50;;
1062;SDS011;520;50.932;6.962;2022-07-10T13:58:04;3.70;;;2.33;;
1062;SDS011;520;50.932;6.962;2022-07-10T14:00:31;5.63;;;2.60;;
1062;SDS011;520;50.932;6.962;2022-07-10T14:02:58;4.60;;;2.40;;
1062;SDS011;520;50.932;6.962;2022-07-10T14:05:27;3.73;;;2.47;;
1062;SDS011;520;50.932;6.962;2022-07-10T14:07:54;2.60;;;2.40;;
1062;SDS011;520;50.932;6.962;2022-07-10T14:10:21;4.57;;;2.73;;
1062;SDS011;520;50.932;6.962;2022-07-10T14:12:48;4.53;;;2.83;;
1062;SDS011;520;50.932;6.962;2022-07-10T14:15:15;6.97;;;3.00;;
1062;SDS011;520;50.932;6.962;2022-07-10T14:17:42;2.93;;;2.50;;
1062;SDS011;520;50.932;6.962;2022-07-10T14:20:10;3.07;;;2.50;;
1062;SDS011;520;50.932;6.962;2022-07-10T14:22:37;2.90;;;2.40;;
1062;SDS011;520;50.932;6.962;2022-07-10T14:25:05;4.23;;;3.50;;
1062;SDS011;520;50.932;6.962;2022-07-10T14:27:35;5.67;;;2.43;;
1062;SDS011;520;50.932;6.962;2022-07-10T14:30:02;3.43;;;2.30;;
1062;SDS011;520;50.932;6.962;2022-07-10T14:32:30;2.40;;;1.60;;
1062;SDS011;520;50.932;6.962;2022-07-10T14:34:57;5.20;;;2.30;;
1062;SDS011;520;50.932;6.962;2022-07-10T14:37:24;3.73;;;2.27;;
1062;SDS011;520;50.932;6.962;2022-07-10T14:39:51;2.23;;;2.03;;
1062;SDS011;520;50.932;6.962;2022-07-10T14:42:18;3.87;;;2.53;;
1062;SDS011;520;50.932;6.962;2022-07-10T14:44:45;3.43;;;2.10;;
1062;SDS011;520;50.932;6.962;2022-07-10T14:47:12;2.10;;;2.00;;
1062;SDS011;520;50.932;6.962;2022-07-10T14:49:38;2.27;;;1.93;;
1062;SDS011;520;50.932;6.962;2022-07-10T14:52:05;4.43;;;2.20;;
1062;SDS011;520;50.932;6.962;2022-07-10T14:54:32;2.87;;;2.23;;
1062;SDS011;520;50.932;6.962;2022-07-10T14:56:58;3.57;;;2.20;;
1062;SDS011;520;50.932;6.962;2022-07-10T14:59:29;5.90;;;2.80;;
1062;SDS011;520;50.932;6.962;2022-07-10T15:01:55;3.87;;;2.20;;
1062;SDS011;520;50.932;6.962;2022-07-10T15:04:22;3.00;;;2.13;;
1062;SDS011;520;50.932;6.962;2022-07-10T15:06:49;5.77;;;2.87;;
1062;SDS011;520;50.932;6.962;2022-07-10T15:09:17;7.70;;;2.67;;
1062;SDS011;520;50.932;6.962;2022-07-10T15:11:44;2.90;;;2.60;;
1062;SDS011;520;50.932;6.962;2022-07-10T15:14:12;3.47;;;2.30;;
1062;SDS011;520;50.932;6.962;2022-07-10T15:16:39;4.87;;;3.53;;
1062;SDS011;520;50.932;6.962;2022-07-10T15:19:07;4.37;;;3.07;;
1062;SDS011;520;50.932;6.962;2022-07-10T15:21:36;3.23;;;2.40;;
1062;SDS011;520;50.932;6.962;2022-07-10T15:24:04;3.80;;;2.30;;
1062;SDS011;520;50.932;6.962;2022-07-10T15:26:31;3.90;;;2.10;;
1062;SDS011;520;50.932;6.962;2022-07-10T15:28:59;4.97;;;2.43;;
1062;SDS011;520;50.932;6.962;2022-07-10T15:31:27;4.50;;;2.77;;
1062;SDS011;520;50.932;6.962;2022-07-10T15:33:55;4.23;;;2.80;;
1062;SDS011;520;50.932;6.962;2022-07-10T15:36:23;4.40;;;2.40;;
1062;SDS011;520;50.932;6.962;2022-07-10T15:38:50;4.57;;;2.90;;
1062;SDS011;520;50.932;6.962;2022-07-10T15:41:16;3.67;;;2.67;;
1062;SDS011;520;50.932;6.962;2022-07-10T15:43:43;4.27;;;3.00;;
1062;SDS011;520;50.932;6.962;2022-07-10T15:46:11;3.10;;;2.30;;
1062;SDS011;520;50.932;6.962;2022-07-10T15:55:31;5.07;;;2.60;;
1062;SDS011;520;50.932;6.962;2022-07-10T15:57:58;5.17;;;1.90;;
1062;SDS011;520;50.932;6.962;2022-07-10T16:00:43;4.13;;;2.90;;
1062;SDS011;520;50.932;6.962;2022-07-10T16:03:18;2.43;;;2.23;;
1062;SDS011;520;50.932;6.962;2022-07-10T16:05:55;2.80;;;2.20;;
1062;SDS011;520;50.932;6.962;2022-07-10T16:08:22;2.60;;;2.40;;
1062;SDS011;520;50.932;6.962;2022-07-10T16:10:48;2.30;;;1.93;;
1062;SDS011;520;50.932;6.962;2022-07-10T16:13:15;8.03;;;4.37;;
1062;SDS011;520;50.932;6.962;2022-07-10T16:15:43;2.90;;;2.70;;
1062;SDS011;520;50.932;6.962;2022-07-10T16:18:11;5.77;;;4.10;;
1062;SDS011;520;50.932;6.962;2022-07-10T16:20:38;2.70;;;2.47;;
1062;SDS011;520;50.932;6.962;2022-07-10T16:23:05;3.30;;;2.77;;
1062;SDS011;520;50.932;6.962;2022-07-10T16:25:32;2.93;;;2.70;;
1062;SDS011;520;50.932;6.962;2022-07-10T16:28:18;4.60;;;2.83;;
1062;SDS011;520;50.932;6.962;2022-07-10T16:30:45;6.30;;;2.57;;
1062;SDS011;520;50.932;6.962;2022-07-10T16:33:15;2.60;;;2.40;;
1062;SDS011;520;50.932;6.962;2022-07-10T16:35:42;3.70;;;3.00;;
1062;SDS011;520;50.932;6.962;2022-07-10T16:38:10;4.63;;;3.10;;
1062;SDS011;520;50.932;6.962;2022-07-10T16:40:37;10.60;;;3.67;;
1062;SDS011;520;50.932;6.962;2022-07-10T16:43:04;3.63;;;2.30;;